createdAt,value
2018-09-18T00:01:40.306Z,14.40
2018-09-18T00:04:08.655Z,14.30
2018-09-18T00:06:36.218Z,14.30
2018-09-18T00:09:04.279Z,14.30
2018-09-18T00:11:31.840Z,14.20
2018-09-18T00:13:59.392Z,14.10
2018-09-18T00:16:26.982Z,14.10
2018-09-18T00:18:54.543Z,14.00
2018-09-18T00:21:22.103Z,14.00
2018-09-18T00:23:49.697Z,13.90
2018-09-18T00:26:17.267Z,13.90
2018-09-18T00:28:44.828Z,14.00
2018-09-18T00:31:12.410Z,14.00
2018-09-18T00:40:37.832Z,13.80
2018-09-18T00:43:06.208Z,13.70
2018-09-18T00:45:33.769Z,13.70
2018-09-18T00:48:01.330Z,13.70
2018-09-18T00:50:28.933Z,13.60
2018-09-18T00:52:56.493Z,13.60
2018-09-18T01:12:49.578Z,13.30
2018-09-18T01:15:18.072Z,13.30
2018-09-18T01:17:45.637Z,13.20
2018-09-18T01:20:13.229Z,13.20
2018-09-18T01:22:40.792Z,13.20
2018-09-18T01:25:08.354Z,13.20
2018-09-18T01:27:35.954Z,13.20
2018-09-18T01:30:04.279Z,13.20
2018-09-18T01:32:31.836Z,13.20
2018-09-18T01:34:59.421Z,13.10
2018-09-18T01:37:26.987Z,13.10
2018-09-18T01:39:54.839Z,13.10
2018-09-18T01:42:22.402Z,13.10
2018-09-18T01:44:49.961Z,13.10
2018-09-18T01:47:17.560Z,13.20
2018-09-18T01:49:45.216Z,13.20
2018-09-18T01:52:12.795Z,13.20
2018-09-18T01:54:40.901Z,13.10
2018-09-18T01:57:08.474Z,13.10
2018-09-18T01:59:36.094Z,13.00
2018-09-18T02:02:03.651Z,13.00
2018-09-18T02:04:31.214Z,13.10
2018-09-18T02:06:58.797Z,13.10
2018-09-18T02:09:26.351Z,13.10
2018-09-18T02:11:53.947Z,13.10
2018-09-18T02:14:21.506Z,13.00
2018-09-18T02:16:49.069Z,13.00
2018-09-18T02:19:16.660Z,12.90
2018-09-18T02:21:45.216Z,13.20
2018-09-18T02:24:12.838Z,13.20
2018-09-18T02:26:40.405Z,13.20
2018-09-18T02:29:07.980Z,13.30
2018-09-18T02:31:35.566Z,13.20
2018-09-18T02:34:03.126Z,13.10
2018-09-18T02:36:30.683Z,13.00
2018-09-18T02:38:58.270Z,13.00
2018-09-18T02:41:25.833Z,12.90
2018-09-18T02:43:54.204Z,12.80
2018-09-18T02:46:21.759Z,12.70
2018-09-18T02:48:49.325Z,12.70
2018-09-18T02:51:16.916Z,12.60
2018-09-18T02:53:44.480Z,12.70
2018-09-18T02:56:12.082Z,12.80
2018-09-18T02:58:39.640Z,12.70
2018-09-18T03:01:07.202Z,12.60
2018-09-18T03:03:34.788Z,12.60
2018-09-18T03:06:02.359Z,12.50
2018-09-18T03:08:30.017Z,12.50
2018-09-18T03:10:57.580Z,12.50
2018-09-18T03:13:25.129Z,12.40
2018-09-18T03:15:52.733Z,12.40
2018-09-18T03:18:21.532Z,12.40
2018-09-18T03:20:47.899Z,12.50
2018-09-18T03:23:15.455Z,12.60
2018-09-18T03:25:43.023Z,12.80
2018-09-18T03:28:10.590Z,12.70
2018-09-18T03:30:38.215Z,12.70
2018-09-18T03:33:05.779Z,12.60
2018-09-18T03:35:33.345Z,12.80
2018-09-18T03:38:00.926Z,12.70
2018-09-18T03:40:28.488Z,12.70
2018-09-18T03:42:56.090Z,12.60
2018-09-18T03:45:23.880Z,12.50
2018-09-18T03:47:51.442Z,12.50
2018-09-18T03:50:19.564Z,12.40
2018-09-18T03:52:47.120Z,12.30
2018-09-18T03:55:14.678Z,12.30
2018-09-18T03:57:42.273Z,12.30
2018-09-18T04:00:10.608Z,12.50
2018-09-18T04:02:38.532Z,12.50
2018-09-18T04:05:06.047Z,12.70
2018-09-18T04:07:33.605Z,12.60
2018-09-18T04:10:01.229Z,12.50
2018-09-18T04:12:28.790Z,12.40
2018-09-18T04:14:56.348Z,12.30
2018-09-18T04:17:23.968Z,12.20
2018-09-18T04:19:51.512Z,12.20
2018-09-18T04:22:19.082Z,12.10
2018-09-18T04:24:46.669Z,12.10
2018-09-18T04:27:14.234Z,12.00
2018-09-18T04:29:41.803Z,12.00
2018-09-18T04:32:09.839Z,12.00
2018-09-18T04:34:37.398Z,11.90
2018-09-18T04:37:04.966Z,11.90
2018-09-18T04:39:32.556Z,12.00
2018-09-18T04:42:00.890Z,12.10
2018-09-18T04:44:28.493Z,12.10
2018-09-18T04:46:56.060Z,12.00
2018-09-18T04:49:24.394Z,11.90
2018-09-18T04:51:52.033Z,11.90
2018-09-18T04:54:19.625Z,11.90
2018-09-18T04:56:47.178Z,11.80
2018-09-18T04:59:14.774Z,11.80
2018-09-18T05:01:42.338Z,11.80
2018-09-18T05:04:10.139Z,11.70
2018-09-18T05:06:37.747Z,11.70
2018-09-18T05:09:05.306Z,11.70
2018-09-18T05:11:32.865Z,11.60
2018-09-18T05:14:00.526Z,11.60
2018-09-18T05:16:28.036Z,11.60
2018-09-18T05:18:55.602Z,11.60
2018-09-18T05:21:23.250Z,11.50
2018-09-18T05:23:51.576Z,11.50
2018-09-18T05:26:19.138Z,11.50
2018-09-18T05:28:46.789Z,11.50
2018-09-18T05:31:14.338Z,11.50
2018-09-18T05:33:41.955Z,11.50
2018-09-18T05:36:09.590Z,11.50
2018-09-18T05:38:37.097Z,11.50
2018-09-18T05:41:04.904Z,11.60
2018-09-18T05:43:32.521Z,11.60
2018-09-18T05:46:00.854Z,11.60
2018-09-18T05:48:28.422Z,11.60
2018-09-18T05:50:56.013Z,11.60
2018-09-18T05:53:23.579Z,11.60
2018-09-18T05:55:51.957Z,11.70
2018-09-18T05:58:19.517Z,11.60
2018-09-18T06:00:47.347Z,11.70
2018-09-18T06:03:15.142Z,11.70
2018-09-18T06:05:42.703Z,11.90
2018-09-18T06:08:10.282Z,12.10
2018-09-18T06:10:38.672Z,12.30
2018-09-18T06:13:07.002Z,12.40
2018-09-18T06:15:34.558Z,12.30
2018-09-18T06:18:02.203Z,12.40
2018-09-18T06:20:29.767Z,12.40
2018-09-18T06:22:57.334Z,12.40
2018-09-18T06:25:25.421Z,12.60
2018-09-18T06:27:52.978Z,12.60
2018-09-18T06:30:20.545Z,12.70
2018-09-18T06:32:49.020Z,12.70
2018-09-18T06:35:16.594Z,12.70
2018-09-18T06:37:44.154Z,12.80
2018-09-18T06:40:11.805Z,12.90
2018-09-18T06:42:39.368Z,12.90
2018-09-18T06:45:06.929Z,13.00
2018-09-18T06:47:35.420Z,13.00
2018-09-18T06:50:02.983Z,13.00
2018-09-18T06:52:30.545Z,13.10
2018-09-18T06:54:58.973Z,13.10
2018-09-18T06:57:26.543Z,13.20
2018-09-18T06:59:54.109Z,13.20
2018-09-18T07:02:21.729Z,13.30
2018-09-18T07:04:49.287Z,13.40
2018-09-18T07:07:16.845Z,13.50
2018-09-18T07:09:44.459Z,13.60
2018-09-18T07:12:12.021Z,13.80
2018-09-18T07:14:39.587Z,13.90
2018-09-18T07:17:07.182Z,14.00
2018-09-18T07:19:34.748Z,14.10
2018-09-18T07:22:02.429Z,14.20
2018-09-18T07:24:29.988Z,14.30
2018-09-18T07:26:57.558Z,14.30
2018-09-18T07:29:26.542Z,14.50
2018-09-18T07:31:54.077Z,14.60
2018-09-18T07:34:21.644Z,14.70
2018-09-18T07:36:49.651Z,14.80
2018-09-18T07:39:17.985Z,15.10
2018-09-18T07:41:45.546Z,15.00
2018-09-18T07:44:14.033Z,15.20
2018-09-18T07:46:41.597Z,15.30
2018-09-18T07:49:09.154Z,15.50
2018-09-18T07:51:36.745Z,15.60
2018-09-18T07:54:04.307Z,15.70
2018-09-18T07:56:32.278Z,15.90
2018-09-18T07:58:59.846Z,16.00
2018-09-18T08:01:28.173Z,16.30
2018-09-18T08:03:56.459Z,16.30
2018-09-18T08:06:24.020Z,16.40
2018-09-18T08:08:51.582Z,16.50
2018-09-18T08:11:19.171Z,16.70
2018-09-18T08:13:46.737Z,16.80
2018-09-18T08:16:14.345Z,17.00
2018-09-18T08:18:42.236Z,17.20
2018-09-18T08:21:09.798Z,17.40
2018-09-18T08:23:38.096Z,17.50
2018-09-18T08:26:05.656Z,17.70
2018-09-18T08:28:33.218Z,17.80
2018-09-18T08:31:01.337Z,18.00
2018-09-18T08:33:28.911Z,18.20
2018-09-18T08:35:56.466Z,18.50
2018-09-18T08:38:24.462Z,18.70
2018-09-18T08:40:52.021Z,18.90
2018-09-18T08:43:19.592Z,19.00
2018-09-18T08:45:47.187Z,19.20
2018-09-18T08:48:15.529Z,19.70
2018-09-18T08:50:43.066Z,19.70
2018-09-18T08:53:11.108Z,19.90
2018-09-18T08:55:39.440Z,20.20
2018-09-18T08:58:07.773Z,20.40
2018-09-18T09:00:35.332Z,20.30
2018-09-18T09:03:03.659Z,20.70
2018-09-18T09:05:31.934Z,20.70
2018-09-18T09:07:59.602Z,20.80
2018-09-18T09:10:27.082Z,21.00
2018-09-18T09:12:55.028Z,21.20
2018-09-18T09:15:22.664Z,21.40
2018-09-18T09:17:50.136Z,21.50
2018-09-18T09:20:17.796Z,21.60
2018-09-18T09:22:45.409Z,21.80
2018-09-18T09:25:12.879Z,21.90
2018-09-18T09:27:41.503Z,22.20
2018-09-18T09:30:09.108Z,22.20
2018-09-18T09:32:36.593Z,22.40
2018-09-18T09:35:04.237Z,22.50
2018-09-18T09:37:31.792Z,22.60
2018-09-18T09:39:59.341Z,22.80
2018-09-18T09:42:27.311Z,22.90
2018-09-18T09:44:54.895Z,23.10
2018-09-18T09:47:22.423Z,23.20
2018-09-18T09:49:50.028Z,23.30
2018-09-18T09:52:17.582Z,23.40
2018-09-18T09:54:45.937Z,23.70
2018-09-18T09:57:13.509Z,23.60
2018-09-18T09:59:41.307Z,23.80
2018-09-18T10:02:08.864Z,23.90
2018-09-18T10:04:37.216Z,24.20
2018-09-18T10:07:04.772Z,24.20
2018-09-18T10:09:32.413Z,24.30
2018-09-18T10:11:59.954Z,24.50
2018-09-18T10:14:27.530Z,24.70
2018-09-18T10:16:55.915Z,24.70
2018-09-18T10:19:23.466Z,24.80
2018-09-18T10:21:51.260Z,24.90
2018-09-18T10:24:18.899Z,24.90
2018-09-18T10:26:46.576Z,25.00
2018-09-18T10:29:14.005Z,25.10
2018-09-18T10:31:41.593Z,25.20
2018-09-18T10:34:09.170Z,25.30
2018-09-18T10:36:36.751Z,25.40
2018-09-18T10:39:04.303Z,25.50
2018-09-18T10:41:32.018Z,25.60
2018-09-18T10:43:59.908Z,25.70
2018-09-18T10:46:27.468Z,25.80
2018-09-18T10:48:55.015Z,25.90
2018-09-18T10:51:22.977Z,26.10
2018-09-18T10:53:50.527Z,26.20
2018-09-18T10:56:18.071Z,26.30
2018-09-18T10:58:46.416Z,26.50
2018-09-18T11:01:13.972Z,26.50
2018-09-18T11:03:41.953Z,26.70
2018-09-18T11:06:09.498Z,26.80
2018-09-18T11:08:37.024Z,26.90
2018-09-18T11:11:04.696Z,27.00
2018-09-18T11:13:33.019Z,27.10
2018-09-18T11:16:00.583Z,27.10
2018-09-18T11:18:28.136Z,27.20
2018-09-18T11:20:55.733Z,27.20
2018-09-18T11:23:23.317Z,27.30
2018-09-18T11:25:50.850Z,27.40
2018-09-18T11:28:18.388Z,27.40
2018-09-18T11:30:46.078Z,27.50
2018-09-18T11:33:13.609Z,27.60
2018-09-18T11:35:41.150Z,27.60
2018-09-18T11:38:09.111Z,27.70
2018-09-18T11:40:36.664Z,27.70
2018-09-18T11:43:04.214Z,27.80
2018-09-18T11:45:31.872Z,27.90
2018-09-18T11:47:59.342Z,28.00
2018-09-18T11:50:26.979Z,28.00
2018-09-18T11:52:55.317Z,28.10
2018-09-18T11:55:22.874Z,28.10
2018-09-18T11:57:51.041Z,28.10
2018-09-18T12:00:18.590Z,28.20
2018-09-18T12:02:46.180Z,28.20
2018-09-18T12:05:13.966Z,28.30
2018-09-18T12:07:42.098Z,28.40
2018-09-18T12:10:09.658Z,28.30
2018-09-18T12:12:37.275Z,28.40
2018-09-18T12:15:04.845Z,28.50
2018-09-18T12:17:32.394Z,28.60
2018-09-18T12:20:01.235Z,28.90
2018-09-18T12:22:28.880Z,28.90
2018-09-18T12:24:56.335Z,29.00
2018-09-18T12:27:23.969Z,29.00
2018-09-18T12:29:52.285Z,29.00
2018-09-18T12:32:19.863Z,28.90
2018-09-18T12:34:47.870Z,29.00
2018-09-18T12:37:16.190Z,29.00
2018-09-18T12:39:43.750Z,28.90
2018-09-18T12:42:11.528Z,29.00
2018-09-18T12:44:38.891Z,29.00
2018-09-18T12:47:06.522Z,29.10
2018-09-18T12:49:34.196Z,29.10
2018-09-18T12:52:02.386Z,29.20
2018-09-18T12:54:30.269Z,29.20
2018-09-18T12:56:57.837Z,29.20
2018-09-18T12:59:25.395Z,29.30
2018-09-18T13:01:54.772Z,29.40
2018-09-18T13:04:22.322Z,29.40
2018-09-18T13:06:49.978Z,29.40
2018-09-18T13:09:17.484Z,29.40
2018-09-18T13:11:45.040Z,29.50
2018-09-18T13:14:12.674Z,29.60
2018-09-18T13:16:40.195Z,29.60
2018-09-18T13:19:07.745Z,29.60
2018-09-18T13:21:35.326Z,29.60
2018-09-18T13:24:04.170Z,29.80
2018-09-18T13:26:31.727Z,29.80
2018-09-18T13:28:59.287Z,29.80
2018-09-18T13:31:26.918Z,29.80
2018-09-18T13:33:55.231Z,29.80
2018-09-18T13:36:22.792Z,29.80
2018-09-18T13:38:52.497Z,29.80
2018-09-18T13:41:20.123Z,29.90
2018-09-18T13:43:47.594Z,29.90
2018-09-18T13:46:15.279Z,29.90
2018-09-18T13:48:43.555Z,30.00
2018-09-18T13:51:11.435Z,30.00
2018-09-18T13:53:39.040Z,30.00
2018-09-18T13:56:07.662Z,30.10
2018-09-18T13:58:35.155Z,30.00
2018-09-18T14:01:03.861Z,30.10
2018-09-18T14:03:31.367Z,30.10
2018-09-18T14:05:58.913Z,30.10
2018-09-18T14:08:26.624Z,30.20
2018-09-18T14:10:54.089Z,30.20
2018-09-18T14:13:21.651Z,30.30
2018-09-18T14:15:49.239Z,30.30
2018-09-18T14:18:17.559Z,30.40
2018-09-18T14:20:45.106Z,30.40
2018-09-18T14:23:12.978Z,30.40
2018-09-18T14:25:40.539Z,30.50
2018-09-18T14:28:08.118Z,30.50
2018-09-18T14:30:36.475Z,30.50
2018-09-18T14:33:04.025Z,30.50
2018-09-18T14:35:32.338Z,30.40
2018-09-18T14:38:01.009Z,30.40
2018-09-18T14:40:28.524Z,30.40
2018-09-18T14:42:56.038Z,30.40
2018-09-18T14:45:23.750Z,30.40
2018-09-18T14:47:52.054Z,30.40
2018-09-18T14:50:19.539Z,30.40
2018-09-18T14:52:47.137Z,30.40
2018-09-18T14:55:14.688Z,30.50
2018-09-18T14:57:42.239Z,30.50
2018-09-18T15:00:09.849Z,30.50
2018-09-18T15:02:37.363Z,30.60
2018-09-18T15:05:04.961Z,30.70
2018-09-18T15:07:32.516Z,30.60
2018-09-18T15:10:00.072Z,30.60
2018-09-18T15:12:27.674Z,30.40
2018-09-18T15:14:55.223Z,30.40
2018-09-18T15:17:23.541Z,30.40
2018-09-18T15:19:51.160Z,30.30
2018-09-18T15:22:19.479Z,30.50
2018-09-18T15:24:47.025Z,30.50
2018-09-18T15:27:14.641Z,30.60
2018-09-18T15:29:42.204Z,30.70
2018-09-18T15:32:09.829Z,30.80
2018-09-18T15:34:37.358Z,30.90
2018-09-18T15:37:04.918Z,31.00
2018-09-18T15:39:32.480Z,31.30
2018-09-18T15:42:00.842Z,31.30
2018-09-18T15:44:28.392Z,31.20
2018-09-18T15:46:55.947Z,31.30
2018-09-18T15:49:23.549Z,31.30
2018-09-18T15:51:51.158Z,31.30
2018-09-18T15:54:19.416Z,31.10
2018-09-18T15:56:47.695Z,31.00
2018-09-18T15:59:15.247Z,30.90
2018-09-18T16:01:42.857Z,30.80
2018-09-18T16:04:10.435Z,30.60
2018-09-18T16:06:37.992Z,30.40
2018-09-18T16:09:06.730Z,30.10
2018-09-18T16:11:34.280Z,30.10
2018-09-18T16:14:01.853Z,30.00
2018-09-18T16:16:30.056Z,29.90
2018-09-18T16:18:57.581Z,29.80
2018-09-18T16:21:25.132Z,29.80
2018-09-18T16:23:52.733Z,29.70
2018-09-18T16:26:20.285Z,29.60
2018-09-18T16:28:47.846Z,29.50
2018-09-18T16:31:15.897Z,29.50
2018-09-18T16:33:43.451Z,29.40
2018-09-18T16:36:11.003Z,29.20
2018-09-18T16:38:39.100Z,29.10
2018-09-18T16:41:06.651Z,29.00
2018-09-18T16:43:34.207Z,28.90
2018-09-18T16:46:01.810Z,28.80
2018-09-18T16:48:29.648Z,28.60
2018-09-18T16:50:57.943Z,28.40
2018-09-18T16:53:26.006Z,28.40
2018-09-18T16:55:53.566Z,28.30
2018-09-18T16:58:21.140Z,28.20
2018-09-18T17:00:48.776Z,28.10
2018-09-18T17:03:16.321Z,28.00
2018-09-18T17:05:43.921Z,27.90
2018-09-18T17:08:11.496Z,27.80
2018-09-18T17:10:39.082Z,27.80
2018-09-18T17:13:06.668Z,27.80
2018-09-18T17:15:34.213Z,27.90
2018-09-18T17:18:01.780Z,27.90
2018-09-18T17:20:29.414Z,28.00
2018-09-18T17:22:56.968Z,28.00
2018-09-18T17:25:24.519Z,27.80
2018-09-18T17:27:52.112Z,27.60
2018-09-18T17:30:20.441Z,27.40
2018-09-18T17:32:48.046Z,27.40
2018-09-18T17:35:16.368Z,27.10
2018-09-18T17:37:43.919Z,27.00
2018-09-18T17:40:12.331Z,26.90
2018-09-18T17:42:39.879Z,26.80
2018-09-18T17:45:07.437Z,26.60
2018-09-18T17:47:35.560Z,26.50
2018-09-18T17:50:03.127Z,26.40
2018-09-18T17:52:30.647Z,26.30
2018-09-18T17:54:58.281Z,26.20
2018-09-18T17:57:25.829Z,26.10
2018-09-18T17:59:53.390Z,26.00
2018-09-18T18:02:22.294Z,25.90
2018-09-18T18:04:49.844Z,25.80
2018-09-18T18:07:17.399Z,25.80
2018-09-18T18:09:46.431Z,25.70
2018-09-18T18:12:13.987Z,25.70
2018-09-18T18:14:41.538Z,25.60
2018-09-18T18:17:09.149Z,25.50
2018-09-18T18:19:36.703Z,25.40
2018-09-18T18:22:04.250Z,25.40
2018-09-18T18:24:31.858Z,25.30
2018-09-18T18:27:00.490Z,25.30
2018-09-18T18:29:28.060Z,25.30
2018-09-18T18:31:56.144Z,25.30
2018-09-18T18:34:23.696Z,25.20
2018-09-18T18:36:51.257Z,25.10
2018-09-18T18:39:18.940Z,25.00
2018-09-18T18:41:46.524Z,24.90
2018-09-18T18:44:14.079Z,24.90
2018-09-18T18:46:42.545Z,24.90
2018-09-18T18:49:10.121Z,24.90
2018-09-18T18:51:38.444Z,24.90
2018-09-18T18:54:07.574Z,24.90
2018-09-18T18:56:35.124Z,24.80
2018-09-18T18:59:02.713Z,24.70
2018-09-18T19:01:30.354Z,24.80
2018-09-18T19:03:57.879Z,24.70
2018-09-18T19:06:25.519Z,24.60
2018-09-18T19:08:53.041Z,24.50
2018-09-18T19:11:20.606Z,24.40
2018-09-18T19:13:48.160Z,24.30
2018-09-18T19:16:16.216Z,24.20
2018-09-18T19:18:45.076Z,24.30
2018-09-18T19:21:12.581Z,24.20
2018-09-18T19:23:40.300Z,24.10
2018-09-18T19:26:07.787Z,24.20
2018-09-18T19:28:36.067Z,24.10
2018-09-18T19:31:03.700Z,24.20
2018-09-18T19:33:31.346Z,24.00
2018-09-18T19:35:58.826Z,23.90
2018-09-18T19:38:26.469Z,23.80
2018-09-18T19:40:54.801Z,23.60
2018-09-18T19:43:22.408Z,23.60
2018-09-18T19:45:49.940Z,23.50
2018-09-18T19:48:17.581Z,23.40
2018-09-18T19:50:45.229Z,23.30
2018-09-18T19:53:12.792Z,23.20
2018-09-18T19:55:40.376Z,23.10
2018-09-18T19:58:08.435Z,23.00
2018-09-18T20:00:35.991Z,22.90
2018-09-18T20:03:03.586Z,22.90
2018-09-18T20:05:31.149Z,22.80
2018-09-18T20:07:58.710Z,22.70
2018-09-18T20:10:26.274Z,22.70
2018-09-18T20:12:54.733Z,22.60
2018-09-18T20:15:22.287Z,22.50
2018-09-18T20:17:49.836Z,22.60
2018-09-18T20:20:17.908Z,22.50
2018-09-18T20:22:45.469Z,22.40
2018-09-18T20:25:13.015Z,22.40
2018-09-18T20:27:40.626Z,22.30
2018-09-18T20:30:08.183Z,22.20
2018-09-18T20:32:35.731Z,22.10
2018-09-18T20:35:03.573Z,22.10
2018-09-18T20:37:31.122Z,22.00
2018-09-18T20:39:58.686Z,21.90
2018-09-18T20:42:26.387Z,21.90
2018-09-18T20:44:53.947Z,21.80
2018-09-18T20:47:21.499Z,21.80
2018-09-18T20:49:49.100Z,21.70
2018-09-18T20:52:16.666Z,21.70
2018-09-18T20:54:44.987Z,21.60
2018-09-18T20:57:12.572Z,21.60
2018-09-18T20:59:40.139Z,21.50
2018-09-18T21:02:08.183Z,21.50
2018-09-18T21:04:35.662Z,21.60
2018-09-18T21:07:03.222Z,21.80
2018-09-18T21:09:31.512Z,21.70
2018-09-18T21:11:59.067Z,21.60
2018-09-18T21:14:26.622Z,21.60
2018-09-18T21:16:54.261Z,21.70
2018-09-18T21:19:21.839Z,21.60
2018-09-18T21:21:49.376Z,21.50
2018-09-18T21:24:17.681Z,21.40
2018-09-18T21:26:45.235Z,21.40
2018-09-18T21:29:12.787Z,21.30
2018-09-18T21:31:40.879Z,21.30
2018-09-18T21:34:08.429Z,21.20
2018-09-18T21:36:35.983Z,21.20
2018-09-18T21:39:03.613Z,21.20
2018-09-18T21:41:31.160Z,21.10
2018-09-18T21:43:59.488Z,21.10
2018-09-18T21:46:27.069Z,21.00
2018-09-18T21:48:54.625Z,21.00
2018-09-18T21:51:22.182Z,21.00
2018-09-18T21:53:50.673Z,21.00
2018-09-18T21:56:18.234Z,21.00
2018-09-18T21:58:45.792Z,21.00
2018-09-18T22:01:13.405Z,21.00
2018-09-18T22:03:40.934Z,21.00
2018-09-18T22:06:08.498Z,20.90
2018-09-18T22:08:36.132Z,21.10
2018-09-18T22:11:03.678Z,21.10
2018-09-18T22:13:31.237Z,21.10
2018-09-18T22:15:58.843Z,21.10
2018-09-18T22:18:26.395Z,21.10
2018-09-18T22:20:53.952Z,21.10
2018-09-18T22:23:21.542Z,21.00
2018-09-18T22:25:49.105Z,21.20
2018-09-18T22:28:16.666Z,21.10
2018-09-18T22:30:44.257Z,21.10
2018-09-18T22:33:11.815Z,21.00
2018-09-18T22:35:39.368Z,21.00
2018-09-18T22:38:06.947Z,20.90
2018-09-18T22:40:34.499Z,20.80
2018-09-18T22:43:02.174Z,20.80
2018-09-18T22:45:30.465Z,20.70
2018-09-18T22:47:58.253Z,20.70
2018-09-18T22:50:25.847Z,20.60
2018-09-18T22:52:54.172Z,20.60
2018-09-18T22:55:21.721Z,20.60
2018-09-18T22:57:49.705Z,20.60
2018-09-18T23:00:17.265Z,20.50
2018-09-18T23:02:44.820Z,20.50
2018-09-18T23:05:12.400Z,20.50
2018-09-18T23:07:39.967Z,20.40
2018-09-18T23:10:07.600Z,20.40
2018-09-18T23:12:35.149Z,20.40
2018-09-18T23:15:02.706Z,20.30
2018-09-18T23:17:30.332Z,20.30
2018-09-18T23:19:57.890Z,20.20
2018-09-18T23:22:25.445Z,20.10
2018-09-18T23:24:53.040Z,20.10
2018-09-18T23:27:20.596Z,20.20
2018-09-18T23:29:48.915Z,20.10
2018-09-18T23:32:16.496Z,20.10
2018-09-18T23:34:44.063Z,20.10
2018-09-18T23:37:11.656Z,20.00
2018-09-18T23:39:39.987Z,19.90
2018-09-18T23:42:07.817Z,19.90
2018-09-18T23:44:35.372Z,19.90
2018-09-18T23:47:03.710Z,19.80
2018-09-18T23:49:31.251Z,19.80
2018-09-18T23:51:58.836Z,19.70
2018-09-18T23:54:26.396Z,19.70
2018-09-18T23:56:53.950Z,19.60
2018-09-18T23:59:21.552Z,19.60
